Time;durP1;ratioP1;P1;durP2;ratioP2;P2;SDS_P1;SDS_P2;PMS_P1;PMS_P2;Temp;Humidity;BMP_temperature;BMP_pressure;BME280_temperature;BME280_humidity;BME280_pressure;Samples;Min_cycle;Max_cycle;Signal;HPM_P1;HPM_P2
2024/04/10 00:02:24;;;;;;;1.92;0.88;;;22.00;56.30;;;;;;5260812;26;85389;-72
2024/04/10 00:04:51;;;;;;;1.42;0.80;;;22.00;56.30;;;;;;5262153;26;85730;-72
2024/04/10 00:07:17;;;;;;;2.72;0.60;;;22.00;56.30;;;;;;5261919;26;85543;-72
2024/04/10 00:09:43;;;;;;;1.60;0.70;;;21.90;56.00;;;;;;5261100;26;85091;-72
2024/04/10 00:12:09;;;;;;;2.13;0.90;;;21.90;56.10;;;;;;5263112;26;85200;-72
2024/04/10 00:14:38;;;;;;;1.98;0.80;;;21.90;56.30;;;;;;5260250;26;86363;-72
2024/04/10 00:17:04;;;;;;;1.52;0.90;;;21.90;56.20;;;;;;5260259;26;86214;-72
2024/04/10 00:19:31;;;;;;;2.60;0.77;;;21.90;56.20;;;;;;5260490;26;84951;-72
2024/04/10 00:21:56;;;;;;;2.67;1.02;;;21.90;56.30;;;;;;5264333;26;84934;-72
2024/04/10 00:24:22;;;;;;;2.22;0.82;;;21.90;56.40;;;;;;5263285;26;86000;-71
2024/04/10 00:26:51;;;;;;;1.85;0.65;;;21.90;56.40;;;;;;5256893;26;85549;-72
2024/04/10 00:29:17;;;;;;;0.90;0.50;;;21.90;56.30;;;;;;5262223;26;85311;-72
2024/04/10 00:31:45;;;;;;;2.55;0.70;;;21.90;56.40;;;;;;5259207;26;85458;-73
2024/04/10 00:34:11;;;;;;;0.98;0.70;;;21.90;56.20;;;;;;5260467;26;85803;-72
2024/04/10 00:36:37;;;;;;;2.70;1.02;;;21.80;56.30;;;;;;5263387;26;85574;-72
2024/04/10 00:39:05;;;;;;;3.20;0.70;;;21.90;56.20;;;;;;5262851;26;84971;-74
2024/04/10 00:41:31;;;;;;;2.30;1.10;;;21.90;56.10;;;;;;5264521;26;86017;-72
2024/04/10 00:43:57;;;;;;;2.95;0.60;;;21.90;56.10;;;;;;5262977;26;86209;-72
2024/04/10 00:46:23;;;;;;;1.50;0.55;;;21.90;56.10;;;;;;5263475;26;86085;-73
2024/04/10 00:48:49;;;;;;;2.05;0.80;;;21.80;56.20;;;;;;5263257;26;86130;-73
2024/04/10 00:51:25;;;;;;;0.82;0.60;;;21.80;56.10;;;;;;5264016;26;85686;-72
2024/04/10 00:53:53;;;;;;;1.85;0.80;;;21.80;56.00;;;;;;5261723;26;87804;-72
2024/04/10 00:56:19;;;;;;;2.88;1.02;;;21.80;56.00;;;;;;5264432;26;86261;-72
2024/04/10 00:58:47;;;;;;;2.72;1.05;;;21.80;56.00;;;;;;5263350;26;86413;-72
2024/04/10 01:01:14;;;;;;;5.23;1.03;;;21.80;56.20;;;;;;5264031;26;86165;-72
2024/04/10 01:03:40;;;;;;;1.08;0.60;;;21.80;56.10;;;;;;5261308;26;87551;-72
2024/04/10 01:06:10;;;;;;;3.47;1.40;;;21.80;56.10;;;;;;5261403;26;87324;-73
2024/04/10 01:08:38;;;;;;;1.48;0.77;;;21.70;56.00;;;;;;5259745;26;86339;-72
2024/04/10 01:11:06;;;;;;;1.30;0.52;;;21.80;56.20;;;;;;5261487;26;85539;-72
2024/04/10 01:13:33;;;;;;;1.95;0.90;;;21.80;56.20;;;;;;5259197;26;86842;-72
2024/04/10 01:16:00;;;;;;;4.28;0.95;;;21.70;56.10;;;;;;5259477;26;86082;-73
2024/04/10 01:18:26;;;;;;;2.88;0.95;;;21.80;56.10;;;;;;5261062;26;86726;-72
2024/04/10 01:20:52;;;;;;;1.75;0.70;;;21.80;56.30;;;;;;5232657;26;86562;-72
2024/04/10 01:23:19;;;;;;;2.17;1.15;;;21.80;56.10;;;;;;5262929;26;86068;-72
2024/04/10 01:25:44;;;;;;;1.85;0.70;;;21.70;56.00;;;;;;5259655;26;87209;-73
2024/04/10 01:28:10;;;;;;;1.52;0.77;;;21.70;56.20;;;;;;5261128;26;86469;-73
2024/04/10 01:30:36;;;;;;;2.45;0.90;;;21.70;56.10;;;;;;5262728;26;86026;-73
2024/04/10 01:33:02;;;;;;;4.28;1.30;;;21.70;56.10;;;;;;5261848;26;89390;-73
2024/04/10 01:35:28;;;;;;;1.77;0.70;;;21.70;56.10;;;;;;5261908;26;85397;-73
2024/04/10 01:37:54;;;;;;;2.03;1.13;;;21.70;56.00;;;;;;5258189;26;87648;-73
2024/04/10 01:40:23;;;;;;;1.63;0.75;;;21.60;56.10;;;;;;5260796;26;85653;-72
2024/04/10 01:42:49;;;;;;;1.25;0.65;;;21.70;56.10;;;;;;5260334;26;87356;-72
2024/04/10 01:45:15;;;;;;;2.55;0.75;;;21.70;56.10;;;;;;5261828;26;86533;-72
2024/04/10 01:47:42;;;;;;;1.17;0.60;;;21.60;56.00;;;;;;5261092;26;86597;-73
2024/04/10 01:50:08;;;;;;;1.10;0.68;;;21.60;56.00;;;;;;5251351;26;86075;-73
2024/04/10 01:52:34;;;;;;;4.28;1.42;;;21.60;55.90;;;;;;5262307;26;85744;-73
2024/04/10 01:55:00;;;;;;;2.30;0.90;;;21.60;56.00;;;;;;5259764;26;86165;-72
2024/04/10 01:57:26;;;;;;;3.05;0.68;;;21.60;55.90;;;;;;5263759;26;85879;-72
2024/04/10 01:59:53;;;;;;;2.40;0.80;;;21.60;56.00;;;;;;5262838;26;85395;-73
2024/04/10 02:02:19;;;;;;;1.05;0.65;;;21.60;56.00;;;;;;5261534;26;85795;-72
2024/04/10 02:04:47;;;;;;;2.20;0.82;;;21.60;56.10;;;;;;5260903;26;86407;-72
2024/04/10 02:07:14;;;;;;;2.47;0.88;;;21.60;56.10;;;;;;5259340;26;89524;-73
2024/04/10 02:09:40;;;;;;;1.42;0.60;;;21.60;55.90;;;;;;5259225;26;86119;-73
2024/04/10 02:12:06;;;;;;;4.53;0.90;;;21.60;55.90;;;;;;5261022;26;86780;-73
2024/04/10 02:14:32;;;;;;;1.70;0.70;;;21.60;55.80;;;;;;5258176;26;87654;-73
2024/04/10 02:16:58;;;;;;;2.55;0.98;;;21.60;56.00;;;;;;5261116;26;86927;-72
2024/04/10 02:19:24;;;;;;;2.13;0.70;;;21.60;55.90;;;;;;5260766;26;85873;-72
2024/04/10 02:21:52;;;;;;;2.25;1.15;;;21.60;56.00;;;;;;5262056;26;86068;-73
2024/04/10 02:24:19;;;;;;;1.63;0.73;;;21.60;56.00;;;;;;5264638;26;86025;-72
2024/04/10 02:26:44;;;;;;;2.30;0.73;;;21.60;56.00;;;;;;5262222;26;85876;-73
2024/04/10 02:29:10;;;;;;;1.52;0.80;;;21.50;55.70;;;;;;5262931;26;85831;-72
2024/04/10 02:31:36;;;;;;;2.45;0.73;;;21.50;55.90;;;;;;5259999;26;86959;-72
2024/04/10 02:34:03;;;;;;;0.95;0.80;;;21.50;55.90;;;;;;5259763;26;86645;-71
2024/04/10 02:36:29;;;;;;;2.00;0.73;;;21.60;56.00;;;;;;5262907;26;85804;-70
2024/04/10 02:38:55;;;;;;;2.40;0.88;;;21.50;55.90;;;;;;5258203;26;86268;-71
2024/04/10 02:41:21;;;;;;;1.50;0.60;;;21.50;56.20;;;;;;5257729;26;86238;-70
2024/04/10 02:43:47;;;;;;;2.13;0.50;;;21.50;56.00;;;;;;5258506;26;88226;-71
2024/04/10 02:46:16;;;;;;;2.72;1.35;;;21.50;56.00;;;;;;5260895;26;86476;-73
2024/04/10 02:48:45;;;;;;;1.85;0.80;;;21.50;55.90;;;;;;5262106;26;85196;-73
2024/04/10 02:51:11;;;;;;;2.60;0.87;;;21.50;55.90;;;;;;5263259;26;86392;-72
2024/04/10 02:53:38;;;;;;;0.93;0.82;;;21.50;56.20;;;;;;5260316;26;87470;-72
2024/04/10 02:56:04;;;;;;;1.00;0.70;;;21.50;56.00;;;;;;5259429;26;87824;-72
2024/04/10 02:58:30;;;;;;;1.52;0.88;;;21.50;56.10;;;;;;5261799;26;86038;-72
2024/04/10 03:00:56;;;;;;;1.27;0.65;;;21.50;56.10;;;;;;5261647;26;85881;-72
2024/04/10 03:03:23;;;;;;;1.25;0.82;;;21.50;56.10;;;;;;5261704;26;86844;-72
2024/04/10 03:06:03;;;;;;;3.50;1.17;;;21.50;56.00;;;;;;5261820;26;85491;-71
2024/04/10 03:08:30;;;;;;;2.10;0.73;;;21.50;56.00;;;;;;5249715;26;85831;-72
2024/04/10 03:10:56;;;;;;;1.52;0.80;;;21.50;56.20;;;;;;5260760;26;85452;-72
2024/04/10 03:13:22;;;;;;;2.92;0.90;;;21.50;55.90;;;;;;5261650;26;85973;-71
2024/04/10 03:15:48;;;;;;;1.85;0.65;;;21.40;55.90;;;;;;5259938;26;86047;-72
2024/04/10 03:18:13;;;;;;;1.65;0.80;;;21.50;55.90;;;;;;5261484;26;86134;-71
2024/04/10 03:20:39;;;;;;;1.60;0.68;;;21.40;56.00;;;;;;5260660;26;87723;-72
2024/04/10 03:23:05;;;;;;;1.48;0.98;;;21.40;55.90;;;;;;5261276;26;86295;-71
2024/04/10 03:25:33;;;;;;;2.58;0.93;;;21.40;55.70;;;;;;5258312;26;86455;-72
2024/04/10 03:27:59;;;;;;;2.92;0.82;;;21.40;55.90;;;;;;5258584;26;85884;-72
2024/04/10 03:30:26;;;;;;;2.20;0.70;;;21.40;56.00;;;;;;5259371;26;86404;-72
2024/04/10 03:32:53;;;;;;;3.65;0.90;;;21.40;56.00;;;;;;5259408;26;86071;-73
2024/04/10 03:35:19;;;;;;;2.17;1.00;;;21.40;55.90;;;;;;5261795;26;85852;-71
2024/04/10 03:37:45;;;;;;;1.98;0.70;;;21.40;56.10;;;;;;5260329;26;86361;-71
2024/04/10 03:40:12;;;;;;;3.20;0.80;;;21.40;56.00;;;;;;5260269;26;86282;-73
2024/04/10 03:42:38;;;;;;;1.70;0.60;;;21.40;56.10;;;;;;5260381;26;87141;-73
2024/04/10 03:45:05;;;;;;;0.98;0.60;;;21.30;55.90;;;;;;5260751;26;86797;-73
2024/04/10 03:47:31;;;;;;;1.45;0.70;;;21.40;56.00;;;;;;5258075;26;85803;-71
2024/04/10 03:49:57;;;;;;;1.55;0.70;;;21.40;56.00;;;;;;5257231;26;86255;-71
2024/04/10 03:52:24;;;;;;;1.40;0.73;;;21.30;55.80;;;;;;5260224;26;87172;-71
2024/04/10 03:54:50;;;;;;;1.85;0.85;;;21.30;56.00;;;;;;5259002;26;86036;-72
2024/04/10 03:57:16;;;;;;;3.03;1.20;;;21.30;55.90;;;;;;5258017;26;86153;-72
2024/04/10 03:59:42;;;;;;;1.70;0.70;;;21.30;56.00;;;;;;5258735;26;85513;-72
2024/04/10 04:02:08;;;;;;;2.20;0.90;;;21.30;56.00;;;;;;5259325;26;87455;-72
2024/04/10 04:04:33;;;;;;;1.17;0.57;;;21.30;56.00;;;;;;5260447;26;86687;-73
2024/04/10 04:06:59;;;;;;;2.47;0.82;;;21.30;56.00;;;;;;5261186;26;85926;-72
2024/04/10 04:09:25;;;;;;;2.10;0.70;;;21.30;55.90;;;;;;5242206;26;87326;-71
2024/04/10 04:11:52;;;;;;;1.83;0.70;;;21.30;56.00;;;;;;5257820;26;87273;-72
2024/04/10 04:14:18;;;;;;;0.98;0.85;;;21.30;56.00;;;;;;5259478;26;89309;-72
2024/04/10 04:16:44;;;;;;;3.10;1.23;;;21.30;56.00;;;;;;5259661;26;85449;-71
2024/04/10 04:19:10;;;;;;;1.33;0.60;;;21.30;56.20;;;;;;5256722;26;86341;-73
2024/04/10 04:21:36;;;;;;;1.67;0.60;;;21.20;56.30;;;;;;5260182;26;88729;-74
2024/04/10 04:24:03;;;;;;;2.42;1.00;;;21.20;56.10;;;;;;5259517;26;90366;-73
2024/04/10 04:26:28;;;;;;;1.15;1.05;;;21.20;56.00;;;;;;5259738;26;85392;-72
2024/04/10 04:28:54;;;;;;;1.83;0.65;;;21.20;56.10;;;;;;5258005;26;86073;-71
2024/04/10 04:31:20;;;;;;;2.65;0.80;;;21.20;56.10;;;;;;5259364;26;86697;-71
2024/04/10 04:33:46;;;;;;;1.38;0.70;;;21.20;56.00;;;;;;5259608;26;86886;-72
2024/04/10 04:36:12;;;;;;;1.30;0.70;;;21.20;56.10;;;;;;5257924;26;85879;-73
2024/04/10 04:38:37;;;;;;;1.52;0.60;;;21.20;55.90;;;;;;5258740;26;85677;-73
2024/04/10 04:41:05;;;;;;;1.02;0.73;;;21.20;56.10;;;;;;5260274;26;86007;-72
2024/04/10 04:43:30;;;;;;;2.10;1.05;;;21.20;56.00;;;;;;5257981;26;87232;-72
2024/04/10 04:45:57;;;;;;;1.58;0.80;;;21.20;56.00;;;;;;5258617;26;85950;-72
2024/04/10 04:48:23;;;;;;;0.85;0.50;;;21.20;56.10;;;;;;5259658;26;86023;-72
2024/04/10 04:50:49;;;;;;;2.67;0.70;;;21.20;56.00;;;;;;5258188;26;85695;-72
2024/04/10 04:53:16;;;;;;;1.08;0.63;;;21.20;56.00;;;;;;5256963;26;86201;-72
2024/04/10 04:55:43;;;;;;;0.93;0.63;;;21.20;56.00;;;;;;5258261;26;86022;-72
2024/04/10 04:58:13;;;;;;;1.67;0.70;;;21.20;55.90;;;;;;5256458;26;87209;-72
2024/04/10 05:00:39;;;;;;;2.75;1.08;;;21.10;56.00;;;;;;5257978;26;87127;-72
2024/04/10 05:03:06;;;;;;;4.43;1.08;;;21.20;56.00;;;;;;5259737;26;86557;-72
2024/04/10 05:05:36;;;;;;;2.30;0.85;;;21.10;55.90;;;;;;5258385;26;85449;-72
2024/04/10 05:08:02;;;;;;;1.92;0.73;;;21.10;56.00;;;;;;5260491;26;86072;-72
2024/04/10 05:10:28;;;;;;;2.03;0.60;;;21.20;56.20;;;;;;5259811;26;86691;-72
2024/04/10 05:12:54;;;;;;;3.80;1.20;;;21.10;56.10;;;;;;5261942;26;86070;-73
2024/04/10 05:15:19;;;;;;;2.92;0.70;;;21.10;56.10;;;;;;5263554;26;85354;-72
2024/04/10 05:17:48;;;;;;;1.33;0.57;;;21.10;56.00;;;;;;5261672;26;86045;-71
2024/04/10 05:20:15;;;;;;;1.75;0.95;;;21.10;56.30;;;;;;5261595;26;86667;-72
2024/04/10 05:22:42;;;;;;;1.35;0.70;;;21.10;56.20;;;;;;5258730;26;87522;-73
2024/04/10 05:25:09;;;;;;;1.45;0.70;;;21.10;56.10;;;;;;5258908;26;85871;-74
2024/04/10 05:27:38;;;;;;;1.35;0.80;;;21.10;56.10;;;;;;5263944;26;86156;-73
2024/04/10 05:30:08;;;;;;;;;;;21.10;56.20;;;;;;5263294;26;91098;-72
2024/04/10 05:32:34;;;;;;;;;;;21.10;56.20;;;;;;5261442;26;85747;-72
2024/04/10 05:35:00;;;;;;;1.42;0.70;;;21.20;56.00;;;;;;5263836;26;85415;-74
2024/04/10 05:37:25;;;;;;;1.50;0.75;;;21.20;56.10;;;;;;5262692;26;86498;-73
2024/04/10 05:40:16;;;;;;;1.77;1.08;;;21.10;56.10;;;;;;5262912;26;85811;-72
2024/04/10 05:42:44;;;;;;;0.93;0.63;;;21.10;56.20;;;;;;5260815;26;86537;-69
2024/04/10 05:45:12;;;;;;;1.77;0.85;;;21.10;56.20;;;;;;5262874;26;85985;-72
2024/04/10 05:47:39;;;;;;;3.15;0.70;;;21.10;56.30;;;;;;5257603;26;87202;-69
2024/04/10 05:50:09;;;;;;;1.35;0.70;;;21.10;56.40;;;;;;5246823;26;87918;-76
2024/04/10 05:52:35;;;;;;;10.50;2.30;;;21.20;56.70;;;;;;5263391;26;86485;-72
2024/04/10 05:55:03;;;;;;;2.97;1.23;;;21.20;55.90;;;;;;5256805;26;85784;-72
2024/04/10 05:57:30;;;;;;;6.25;1.38;;;21.40;55.90;;;;;;5227060;26;86866;-72
2024/04/10 05:59:57;;;;;;;4.03;1.77;;;21.60;55.50;;;;;;5225839;26;87330;-73
2024/04/10 06:02:23;;;;;;;6.10;1.40;;;21.80;55.00;;;;;;5224589;26;87219;-73
2024/04/10 06:04:56;;;;;;;2.88;1.00;;;21.90;54.90;;;;;;5282149;26;85748;-73
2024/04/10 06:07:22;;;;;;;5.75;1.48;;;22.00;54.70;;;;;;5282626;26;86352;-74
2024/04/10 06:09:55;;;;;;;15.35;2.28;;;22.10;54.50;;;;;;5225087;26;87132;-71
2024/04/10 06:12:21;;;;;;;7.60;2.40;;;22.10;53.80;;;;;;5217572;27;86438;-74
2024/04/10 06:14:55;;;;;;;5.45;1.88;;;22.20;53.60;;;;;;5258681;26;85816;-73
2024/04/10 06:17:21;;;;;;;14.43;3.75;;;22.20;53.60;;;;;;5258418;26;86154;-73
2024/04/10 06:19:48;;;;;;;14.00;2.92;;;22.30;53.40;;;;;;5259841;26;87119;-72
2024/04/10 06:22:14;;;;;;;13.45;3.28;;;22.30;53.20;;;;;;5258998;26;87057;-74
2024/04/10 06:24:43;;;;;;;7.65;2.60;;;22.40;53.10;;;;;;5262127;26;85982;-74
2024/04/10 06:27:08;;;;;;;10.10;2.33;;;22.40;52.90;;;;;;5262113;26;85872;-72
2024/04/10 06:29:34;;;;;;;9.85;2.92;;;22.50;53.00;;;;;;5260098;26;86945;-74
2024/04/10 06:32:00;;;;;;;8.45;2.63;;;22.50;53.50;;;;;;5272197;26;85788;-74
2024/04/10 06:34:27;;;;;;;7.43;2.83;;;22.60;52.70;;;;;;5260049;26;85749;-73
2024/04/10 06:36:53;;;;;;;14.07;3.78;;;22.60;52.60;;;;;;5260288;26;86991;-75
2024/04/10 06:39:21;;;;;;;13.57;3.58;;;22.60;52.30;;;;;;5263896;26;87159;-74
2024/04/10 06:41:47;;;;;;;13.40;3.87;;;22.60;52.60;;;;;;5259031;26;85867;-75
2024/04/10 06:44:13;;;;;;;13.52;3.33;;;22.60;52.90;;;;;;5260646;26;86251;-72
2024/04/10 06:46:39;;;;;;;16.20;3.63;;;22.60;52.70;;;;;;5262265;26;85793;-71
2024/04/10 06:49:04;;;;;;;22.50;5.15;;;22.60;52.30;;;;;;5258629;26;87126;-74
2024/04/10 06:51:31;;;;;;;36.20;7.93;;;22.60;51.90;;;;;;5263004;26;87264;-71
2024/04/10 06:53:57;;;;;;;26.05;5.65;;;22.60;52.00;;;;;;5260030;26;87091;-72
2024/04/10 06:56:24;;;;;;;28.55;5.68;;;22.60;51.90;;;;;;5262030;26;85702;-71
2024/04/10 06:58:50;;;;;;;23.67;5.43;;;22.60;52.30;;;;;;5259030;26;87103;-74
2024/04/10 07:01:16;;;;;;;36.30;7.10;;;22.50;52.10;;;;;;5255296;26;89748;-73
2024/04/10 07:03:43;;;;;;;26.95;5.90;;;22.50;52.10;;;;;;5247814;26;86731;-72
2024/04/10 07:06:10;;;;;;;17.00;5.10;;;22.40;51.90;;;;;;5259990;26;86835;-71
2024/04/10 07:08:42;;;;;;;21.52;6.03;;;22.40;52.20;;;;;;5261280;26;86693;-72
2024/04/10 07:11:11;;;;;;;25.58;5.13;;;22.40;52.30;;;;;;5258524;26;87027;-72
2024/04/10 07:13:46;;;;;;;20.95;5.32;;;22.40;52.30;;;;;;5261069;26;87983;-72
2024/04/10 07:16:12;;;;;;;24.05;5.80;;;22.30;52.30;;;;;;5259333;26;85615;-72
2024/04/10 07:18:38;;;;;;;24.05;6.50;;;22.40;52.30;;;;;;5260645;26;86450;-73
2024/04/10 07:21:15;;;;;;;16.30;4.30;;;22.30;52.50;;;;;;5261120;26;87042;-72
2024/04/10 07:23:42;;;;;;;16.52;4.93;;;22.30;52.50;;;;;;5257183;26;86184;-73
2024/04/10 07:26:20;;;;;;;23.35;5.45;;;22.30;52.50;;;;;;5258540;26;86941;-72
2024/04/10 07:28:52;;;;;;;19.42;4.22;;;22.30;52.40;;;;;;5259324;26;86649;-75
2024/04/10 07:31:20;;;;;;;17.10;4.90;;;22.30;52.50;;;;;;5258028;26;87149;-74
2024/04/10 07:33:50;;;;;;;16.60;5.20;;;22.30;52.50;;;;;;5257058;26;85897;-73
2024/04/10 07:36:20;;;;;;;;;;;22.20;52.40;;;;;;5263398;26;85997;-73
2024/04/10 07:38:46;;;;;;;23.00;4.85;;;22.20;52.50;;;;;;5252277;26;86084;-74
2024/04/10 07:41:13;;;;;;;15.43;4.80;;;22.20;52.60;;;;;;5260335;26;87178;-71
2024/04/10 07:43:39;;;;;;;19.73;4.18;;;22.10;52.60;;;;;;5260156;26;85135;-72
2024/04/10 07:46:08;;;;;;;21.95;5.50;;;22.10;52.80;;;;;;5264895;26;86487;-70
2024/04/10 07:48:35;;;;;;;17.67;4.72;;;22.10;52.90;;;;;;5264235;26;86462;-70
2024/04/10 07:51:05;;;;;;;17.52;4.28;;;22.00;52.90;;;;;;5259758;26;87444;-72
2024/04/10 16:03:52;;;;;;;20.50;8.00;;;24.00;46.20;;;;;;5345211;25;1537675;-64
2024/04/10 16:06:21;;;;;;;23.70;7.75;;;24.00;45.90;;;;;;5373081;26;85963;-62
2024/04/10 16:08:48;;;;;;;24.35;7.45;;;24.00;46.10;;;;;;5404669;25;84315;-63
2024/04/10 16:11:18;;;;;;;30.85;8.63;;;24.00;46.20;;;;;;5406004;25;84286;-63
2024/04/10 16:13:46;;;;;;;22.63;7.30;;;24.00;46.50;;;;;;5373928;26;87555;-62
2024/04/10 16:16:15;;;;;;;27.70;7.70;;;24.10;46.40;;;;;;5407365;25;84889;-65
2024/04/10 16:18:42;;;;;;;22.10;7.45;;;24.10;46.20;;;;;;5406318;25;84738;-64
2024/04/10 16:21:12;;;;;;;24.27;7.85;;;24.10;46.30;;;;;;5408001;25;84367;-63
2024/04/10 16:23:46;;;;;;;23.48;6.97;;;24.10;46.40;;;;;;5373610;26;84488;-63
2024/04/10 16:26:18;;;;;;;24.38;7.70;;;24.20;46.50;;;;;;5373091;26;87624;-65
2024/04/10 16:28:45;;;;;;;18.15;6.75;;;24.20;46.60;;;;;;5407583;25;84260;-63
2024/04/10 16:31:18;;;;;;;19.83;7.22;;;24.20;46.50;;;;;;5375361;26;84966;-63
2024/04/10 16:33:48;;;;;;;17.60;7.03;;;24.20;47.10;;;;;;5408087;25;86771;-64
2024/04/10 16:36:15;;;;;;;23.58;7.35;;;24.30;46.50;;;;;;5405601;25;84923;-64
2024/04/10 16:38:45;;;;;;;18.85;7.32;;;24.30;46.60;;;;;;5373952;26;85099;-64
2024/04/10 16:41:14;;;;;;;19.75;6.93;;;24.30;46.80;;;;;;5403805;25;85290;-62
2024/04/10 16:43:41;;;;;;;17.85;7.53;;;24.30;46.60;;;;;;5396582;25;86820;-61
2024/04/10 16:46:08;;;;;;;21.48;7.22;;;24.30;46.70;;;;;;5379783;25;86050;-63
2024/04/10 16:48:34;;;;;;;13.55;5.63;;;24.30;46.50;;;;;;5374864;26;84409;-62
2024/04/10 16:51:02;;;;;;;21.50;7.75;;;24.30;47.00;;;;;;5440725;25;85269;-64
2024/04/10 16:53:28;;;;;;;18.10;6.65;;;24.30;46.80;;;;;;5439247;25;86221;-63
2024/04/10 16:55:55;;;;;;;15.85;5.65;;;24.30;46.80;;;;;;5407687;25;85154;-64
2024/04/10 16:58:20;;;;;;;21.67;6.28;;;24.30;46.70;;;;;;5440314;25;84664;-63
2024/04/10 17:00:46;;;;;;;19.58;5.85;;;24.30;46.80;;;;;;5407460;25;84675;-62
2024/04/10 17:03:13;;;;;;;16.08;5.55;;;24.30;46.90;;;;;;5398883;25;89643;-63
2024/04/10 17:05:39;;;;;;;19.08;6.57;;;24.30;46.90;;;;;;5428783;25;84888;-62
2024/04/10 17:08:07;;;;;;;19.77;6.53;;;24.30;47.10;;;;;;5429504;25;85430;-61
2024/04/10 17:10:40;;;;;;;17.05;6.03;;;24.30;47.30;;;;;;5391662;25;84881;-62
2024/04/10 17:13:09;;;;;;;17.92;6.57;;;24.40;47.10;;;;;;5403016;25;87106;-62
2024/04/10 17:15:35;;;;;;;15.23;4.70;;;24.40;47.30;;;;;;5374242;25;87305;-63
2024/04/10 17:23:45;;;;;;;13.90;5.13;;;24.60;47.30;;;;;;5432318;25;84725;-62
2024/04/10 17:26:12;;;;;;;18.83;6.55;;;24.60;47.30;;;;;;5431646;25;85360;-61
2024/04/10 17:28:39;;;;;;;14.25;5.30;;;24.60;47.30;;;;;;5398116;25;85353;-62
2024/04/10 17:31:05;;;;;;;17.83;5.05;;;24.60;47.30;;;;;;5427440;25;84981;-62
2024/04/10 17:33:31;;;;;;;13.68;5.40;;;24.60;47.40;;;;;;5423859;25;85827;-63
2024/04/10 17:36:01;;;;;;;13.98;5.63;;;24.60;47.40;;;;;;5433302;25;85230;-63
2024/04/10 17:38:29;;;;;;;17.35;5.65;;;24.70;47.50;;;;;;5431081;25;84612;-65
2024/04/10 17:41:03;;;;;;;13.95;5.28;;;24.70;47.40;;;;;;5397447;25;84424;-65
2024/04/10 17:43:30;;;;;;;12.85;4.97;;;24.70;47.60;;;;;;5425502;25;86066;-66
2024/04/10 17:45:59;;;;;;;14.73;5.47;;;24.70;47.60;;;;;;5395993;25;86589;-65
2024/04/10 17:48:28;;;;;;;13.20;5.15;;;24.60;47.90;;;;;;5423404;25;85476;-64
2024/04/10 17:50:55;;;;;;;;;;;24.50;48.10;;;;;;5371090;26;85716;-63
2024/04/10 17:53:22;;;;;;;12.95;4.95;;;24.40;48.10;;;;;;5430765;25;85473;-62
2024/04/10 17:55:48;;;;;;;16.02;4.20;;;24.40;48.40;;;;;;5436803;25;85340;-62
2024/04/10 17:58:14;;;;;;;16.88;5.97;;;24.30;48.40;;;;;;5433791;25;84789;-61
2024/04/10 18:00:40;;;;;;;13.95;5.43;;;24.30;48.80;;;;;;5430284;25;85009;-65
2024/04/10 18:03:07;;;;;;;12.35;4.28;;;24.20;48.80;;;;;;5435380;25;84995;-65
2024/04/10 18:05:33;;;;;;;14.68;4.78;;;24.20;48.90;;;;;;5431298;25;85960;-65
2024/04/10 18:07:59;;;;;;;12.98;4.20;;;24.30;48.90;;;;;;5400996;25;84476;-65
2024/04/10 18:10:27;;;;;;;12.95;5.03;;;24.20;49.00;;;;;;5434234;25;84903;-65
2024/04/10 18:12:54;;;;;;;15.90;5.93;;;24.20;49.30;;;;;;5397366;25;88273;-65
2024/04/10 18:15:20;;;;;;;11.52;5.00;;;24.10;49.50;;;;;;5403719;25;87610;-67
2024/04/10 18:17:47;;;;;;;12.48;4.40;;;24.20;49.70;;;;;;5405209;25;85315;-66
2024/04/10 18:20:13;;;;;;;11.73;4.97;;;24.10;49.70;;;;;;5401021;25;84519;-66
2024/04/10 18:22:40;;;;;;;12.25;4.63;;;24.10;50.30;;;;;;5400500;25;84665;-66
2024/04/10 18:25:07;;;;;;;7.68;3.53;;;24.10;49.90;;;;;;5433136;25;84734;-65
2024/04/10 18:27:35;;;;;;;15.85;5.35;;;24.10;49.70;;;;;;5437305;25;84997;-64
2024/04/10 18:30:02;;;;;;;12.00;4.95;;;24.00;50.20;;;;;;5404588;25;84695;-64
2024/04/10 18:32:28;;;;;;;14.88;4.65;;;24.10;50.30;;;;;;5424679;25;86540;-65
2024/04/10 18:34:55;;;;;;;10.40;4.35;;;24.10;50.40;;;;;;5431144;25;85644;-67
2024/04/10 18:37:22;;;;;;;11.90;4.05;;;24.00;50.20;;;;;;5433834;25;85029;-66
2024/04/10 18:39:55;;;;;;;11.38;4.70;;;24.00;50.40;;;;;;5436822;25;84405;-68
2024/04/10 18:42:21;;;;;;;13.38;4.82;;;24.00;50.50;;;;;;5411514;25;84998;-65
2024/04/10 18:44:47;;;;;;;10.63;4.55;;;24.00;50.60;;;;;;5375898;25;86176;-65
2024/04/10 18:47:14;;;;;;;9.55;3.28;;;24.00;50.80;;;;;;5408458;25;84643;-65
2024/04/10 18:49:40;;;;;;;10.68;4.00;;;24.00;51.00;;;;;;5383542;25;85371;-64
2024/04/10 18:52:06;;;;;;;10.93;4.45;;;24.00;51.00;;;;;;5376821;25;86139;-64
2024/04/10 18:54:33;;;;;;;10.05;4.13;;;24.00;50.80;;;;;;5407272;25;84777;-66
2024/04/10 18:56:59;;;;;;;11.38;3.58;;;24.00;51.00;;;;;;5375607;25;85127;-65
2024/04/10 18:59:25;;;;;;;10.68;3.60;;;24.00;50.70;;;;;;5408190;25;84165;-68
2024/04/10 19:01:51;;;;;;;10.35;3.95;;;24.00;50.70;;;;;;5376726;25;88206;-68
2024/04/10 19:04:17;;;;;;;10.70;4.25;;;24.00;51.00;;;;;;5407420;25;84757;-66
2024/04/10 19:06:51;;;;;;;11.95;4.22;;;24.00;51.00;;;;;;5407187;25;84763;-67
2024/04/10 19:09:16;;;;;;;9.23;3.60;;;24.10;50.90;;;;;;5406441;25;84535;-66
2024/04/10 19:11:42;;;;;;;8.63;3.75;;;24.00;51.10;;;;;;5406554;25;85786;-65
2024/04/10 19:14:08;;;;;;;9.50;3.92;;;24.00;51.20;;;;;;5417591;25;84357;-64
2024/04/10 19:16:34;;;;;;;8.40;3.38;;;24.00;51.20;;;;;;5400332;25;85428;-65
2024/04/10 19:19:00;;;;;;;11.63;4.30;;;24.00;51.10;;;;;;5438501;25;85404;-65
2024/04/10 19:21:26;;;;;;;9.57;3.50;;;23.90;51.40;;;;;;5437051;25;86677;-66
2024/04/10 19:23:53;;;;;;;9.05;3.63;;;24.00;51.40;;;;;;5405562;25;84810;-66
2024/04/10 19:26:18;;;;;;;7.55;3.42;;;23.90;51.40;;;;;;5374246;26;84837;-65
2024/04/10 19:28:44;;;;;;;7.60;2.95;;;24.00;51.60;;;;;;5440104;25;84532;-65
2024/04/10 19:31:10;;;;;;;6.57;2.92;;;24.00;51.70;;;;;;5439489;25;85222;-65
2024/04/10 19:33:37;;;;;;;8.85;3.42;;;24.00;51.60;;;;;;5392749;26;85079;-65
2024/04/10 19:36:09;;;;;;;10.68;4.78;;;24.00;51.50;;;;;;5406002;25;84211;-65
2024/04/10 19:38:35;;;;;;;9.93;4.32;;;23.90;51.60;;;;;;5406036;25;84940;-65
2024/04/10 19:41:11;;;;;;;11.07;3.42;;;24.00;51.90;;;;;;5402253;25;86392;-66
2024/04/10 19:43:46;;;;;;;9.23;3.92;;;23.90;51.90;;;;;;5406647;25;85361;-65
2024/04/10 19:46:14;;;;;;;10.60;3.45;;;24.00;51.80;;;;;;5434620;25;84242;-64
2024/04/10 19:48:40;;;;;;;8.75;3.30;;;23.90;51.80;;;;;;5396147;25;85439;-64
2024/04/10 19:51:06;;;;;;;8.07;3.13;;;24.00;51.80;;;;;;5374272;25;88546;-64
2024/04/10 19:53:34;;;;;;;7.68;3.45;;;24.00;52.00;;;;;;5374710;25;85016;-65
2024/04/10 19:56:06;;;;;;;7.95;3.13;;;24.00;52.10;;;;;;5406799;25;85999;-64
2024/04/10 19:58:33;;;;;;;7.85;3.20;;;24.00;52.10;;;;;;5405314;25;85600;-64
2024/04/10 20:01:06;;;;;;;9.02;3.72;;;24.00;52.40;;;;;;5403180;25;86519;-65
2024/04/10 20:03:33;;;;;;;7.88;3.55;;;24.00;52.40;;;;;;5405043;25;84850;-66
2024/04/10 20:06:03;;;;;;;7.72;3.03;;;24.00;52.20;;;;;;5373840;25;84614;-66
2024/04/10 20:08:32;;;;;;;8.10;3.65;;;24.00;52.10;;;;;;5405798;25;84324;-65
2024/04/10 20:11:02;;;;;;;7.40;3.25;;;24.00;52.20;;;;;;5406234;25;85683;-66
2024/04/10 20:13:29;;;;;;;5.88;2.50;;;24.00;52.30;;;;;;5372108;25;84952;-66
2024/04/10 20:16:08;;;;;;;6.05;2.72;;;24.00;52.40;;;;;;5370562;25;86057;-65
2024/04/10 20:18:38;;;;;;;10.07;3.35;;;24.00;52.40;;;;;;5406128;25;84445;-63
2024/04/10 20:21:06;;;;;;;5.05;2.67;;;24.00;52.30;;;;;;5406609;25;84862;-63
2024/04/10 20:23:34;;;;;;;8.50;2.85;;;24.00;52.20;;;;;;5371854;26;85389;-64
2024/04/10 20:26:00;;;;;;;4.85;2.67;;;23.90;48.20;;;;;;5404368;25;84967;-64
2024/04/10 20:28:25;;;;;;;7.95;2.70;;;23.90;51.80;;;;;;5406095;25;84956;-63
2024/04/10 20:31:08;;;;;;;5.45;2.95;;;24.00;52.10;;;;;;5434473;25;85723;-63
2024/04/10 20:33:35;;;;;;;8.40;2.90;;;24.00;52.00;;;;;;5440766;25;85118;-63
2024/04/10 20:36:03;;;;;;;8.13;2.85;;;24.00;52.00;;;;;;5398493;26;84877;-63
2024/04/10 20:38:30;;;;;;;8.77;3.20;;;24.00;51.80;;;;;;5371836;26;84495;-63
2024/04/10 20:41:03;;;;;;;10.90;3.28;;;24.00;52.10;;;;;;5375168;25;86385;-63
2024/04/10 20:43:29;;;;;;;6.00;3.13;;;24.00;52.30;;;;;;5406082;25;86161;-63
2024/04/10 20:45:56;;;;;;;9.60;2.63;;;24.00;52.00;;;;;;5407409;25;85582;-61
2024/04/10 20:48:25;;;;;;;8.00;2.58;;;24.00;51.60;;;;;;5440141;25;84716;-61
2024/04/10 20:50:54;;;;;;;;;;;23.90;51.50;;;;;;5408713;25;87445;-62
2024/04/10 20:53:22;;;;;;;3.47;2.35;;;23.80;51.90;;;;;;5440069;25;84800;-63
2024/04/10 20:56:00;;;;;;;5.60;2.58;;;23.70;52.40;;;;;;5423147;25;85120;-62
2024/04/10 20:58:26;;;;;;;7.72;2.70;;;23.70;52.60;;;;;;5368359;25;85051;-63
2024/04/10 21:01:09;;;;;;;6.65;2.88;;;23.60;52.80;;;;;;5399078;25;85943;-62
2024/04/10 21:03:36;;;;;;;6.93;2.88;;;23.50;53.00;;;;;;5403145;25;84245;-62